sensor_id;sensor_type;location;lat;lon;timestamp;temperature;humidity
3356;DHT22;1691;52.486;13.374;2023-06-19T00:01:09;19.00;86.00
3356;DHT22;1691;52.486;13.374;2023-06-19T00:03:36;19.00;86.20
3356;DHT22;1691;52.486;13.374;2023-06-19T00:06:05;19.00;86.20
3356;DHT22;1691;52.486;13.374;2023-06-19T00:08:33;19.00;86.20
3356;DHT22;1691;52.486;13.374;2023-06-19T00:11:00;19.00;86.40
3356;DHT22;1691;52.486;13.374;2023-06-19T00:13:27;19.00;86.40
3356;DHT22;1691;52.486;13.374;2023-06-19T00:15:54;19.00;86.40
3356;DHT22;1691;52.486;13.374;2023-06-19T00:18:28;19.00;86.50
3356;DHT22;1691;52.486;13.374;2023-06-19T00:20:55;19.00;86.50
3356;DHT22;1691;52.486;13.374;2023-06-19T00:23:23;19.00;86.50
3356;DHT22;1691;52.486;13.374;2023-06-19T00:25:50;19.10;86.50
3356;DHT22;1691;52.486;13.374;2023-06-19T00:28:18;19.10;86.50
3356;DHT22;1691;52.486;13.374;2023-06-19T00:30:46;19.10;86.50
3356;DHT22;1691;52.486;13.374;2023-06-19T00:33:16;19.10;86.50
3356;DHT22;1691;52.486;13.374;2023-06-19T00:35:43;19.10;86.50
3356;DHT22;1691;52.486;13.374;2023-06-19T00:38:10;19.10;86.50
3356;DHT22;1691;52.486;13.374;2023-06-19T00:40:38;19.20;86.50
3356;DHT22;1691;52.486;13.374;2023-06-19T00:43:06;19.20;86.40
3356;DHT22;1691;52.486;13.374;2023-06-19T00:45:33;19.20;86.40
3356;DHT22;1691;52.486;13.374;2023-06-19T00:48:01;19.20;86.40
3356;DHT22;1691;52.486;13.374;2023-06-19T00:50:29;19.20;86.40
3356;DHT22;1691;52.486;13.374;2023-06-19T00:52:58;19.20;86.40
3356;DHT22;1691;52.486;13.374;2023-06-19T00:55:29;19.20;86.40
3356;DHT22;1691;52.486;13.374;2023-06-19T00:58:00;19.30;86.20
3356;DHT22;1691;52.486;13.374;2023-06-19T01:00:27;19.30;86.40
3356;DHT22;1691;52.486;13.374;2023-06-19T01:02:55;19.30;86.40
3356;DHT22;1691;52.486;13.374;2023-06-19T01:05:22;19.30;86.40
3356;DHT22;1691;52.486;13.374;2023-06-19T01:07:59;19.30;86.40
3356;DHT22;1691;52.486;13.374;2023-06-19T01:10:32;19.30;86.20
3356;DHT22;1691;52.486;13.374;2023-06-19T01:13:20;19.20;86.40
3356;DHT22;1691;52.486;13.374;2023-06-19T01:15:55;19.20;86.40
3356;DHT22;1691;52.486;13.374;2023-06-19T01:18:23;19.20;86.50
3356;DHT22;1691;52.486;13.374;2023-06-19T01:20:52;19.10;86.50
3356;DHT22;1691;52.486;13.374;2023-06-19T01:23:19;19.10;86.70
3356;DHT22;1691;52.486;13.374;2023-06-19T01:25:47;19.00;86.70
3356;DHT22;1691;52.486;13.374;2023-06-19T01:28:14;18.90;87.30
3356;DHT22;1691;52.486;13.374;2023-06-19T01:30:42;18.90;87.50
3356;DHT22;1691;52.486;13.374;2023-06-19T01:33:15;18.80;87.50
3356;DHT22;1691;52.486;13.374;2023-06-19T01:35:48;18.80;87.70
3356;DHT22;1691;52.486;13.374;2023-06-19T01:38:21;18.70;87.90
3356;DHT22;1691;52.486;13.374;2023-06-19T01:40:49;18.70;88.00
3356;DHT22;1691;52.486;13.374;2023-06-19T01:43:18;18.70;88.20
3356;DHT22;1691;52.486;13.374;2023-06-19T01:45:46;18.60;88.40
3356;DHT22;1691;52.486;13.374;2023-06-19T01:48:14;18.60;88.60
3356;DHT22;1691;52.486;13.374;2023-06-19T01:50:48;18.60;88.80
3356;DHT22;1691;52.486;13.374;2023-06-19T01:53:16;18.60;88.80
3356;DHT22;1691;52.486;13.374;2023-06-19T01:55:43;18.60;89.00
3356;DHT22;1691;52.486;13.374;2023-06-19T01:58:10;18.60;89.00
3356;DHT22;1691;52.486;13.374;2023-06-19T02:00:38;18.60;89.20
3356;DHT22;1691;52.486;13.374;2023-06-19T02:03:05;18.60;89.20
3356;DHT22;1691;52.486;13.374;2023-06-19T02:05:32;18.70;89.20
3356;DHT22;1691;52.486;13.374;2023-06-19T02:08:01;18.70;89.30
3356;DHT22;1691;52.486;13.374;2023-06-19T02:10:28;18.70;89.20
3356;DHT22;1691;52.486;13.374;2023-06-19T02:12:55;18.70;89.20
3356;DHT22;1691;52.486;13.374;2023-06-19T02:15:23;18.70;89.20
3356;DHT22;1691;52.486;13.374;2023-06-19T02:17:50;18.70;89.20
3356;DHT22;1691;52.486;13.374;2023-06-19T02:20:24;18.70;89.20
3356;DHT22;1691;52.486;13.374;2023-06-19T02:22:52;18.70;89.20
3356;DHT22;1691;52.486;13.374;2023-06-19T02:25:19;18.70;89.20
3356;DHT22;1691;52.486;13.374;2023-06-19T02:27:47;18.70;89.20
3356;DHT22;1691;52.486;13.374;2023-06-19T02:30:14;18.70;89.20
3356;DHT22;1691;52.486;13.374;2023-06-19T02:32:41;18.60;89.30
3356;DHT22;1691;52.486;13.374;2023-06-19T02:35:10;18.70;89.30
3356;DHT22;1691;52.486;13.374;2023-06-19T02:37:38;18.60;89.20
3356;DHT22;1691;52.486;13.374;2023-06-19T02:40:06;18.70;89.30
3356;DHT22;1691;52.486;13.374;2023-06-19T02:42:35;18.70;89.30
3356;DHT22;1691;52.486;13.374;2023-06-19T02:45:03;18.70;89.30
3356;DHT22;1691;52.486;13.374;2023-06-19T02:47:31;18.70;89.20
3356;DHT22;1691;52.486;13.374;2023-06-19T02:49:59;18.70;89.30
3356;DHT22;1691;52.486;13.374;2023-06-19T02:52:27;18.70;89.20
3356;DHT22;1691;52.486;13.374;2023-06-19T02:54:54;18.70;89.20
3356;DHT22;1691;52.486;13.374;2023-06-19T02:57:22;18.70;89.20
3356;DHT22;1691;52.486;13.374;2023-06-19T02:59:49;18.70;89.00
3356;DHT22;1691;52.486;13.374;2023-06-19T03:02:16;18.70;89.00
3356;DHT22;1691;52.486;13.374;2023-06-19T03:04:44;18.70;89.00
3356;DHT22;1691;52.486;13.374;2023-06-19T03:07:11;18.70;89.00
3356;DHT22;1691;52.486;13.374;2023-06-19T03:09:41;18.70;89.00
3356;DHT22;1691;52.486;13.374;2023-06-19T03:12:09;18.70;89.00
3356;DHT22;1691;52.486;13.374;2023-06-19T03:14:36;18.70;89.00
3356;DHT22;1691;52.486;13.374;2023-06-19T03:17:03;18.60;89.20
3356;DHT22;1691;52.486;13.374;2023-06-19T03:19:31;18.60;89.20
3356;DHT22;1691;52.486;13.374;2023-06-19T03:21:58;18.70;89.20
3356;DHT22;1691;52.486;13.374;2023-06-19T03:24:26;18.70;89.20
3356;DHT22;1691;52.486;13.374;2023-06-19T03:26:53;18.70;89.20
3356;DHT22;1691;52.486;13.374;2023-06-19T03:29:20;18.80;89.20
3356;DHT22;1691;52.486;13.374;2023-06-19T03:31:48;18.90;89.00
3356;DHT22;1691;52.486;13.374;2023-06-19T03:34:15;19.00;88.80
3356;DHT22;1691;52.486;13.374;2023-06-19T03:36:42;19.10;88.40
3356;DHT22;1691;52.486;13.374;2023-06-19T03:39:10;19.10;88.20
3356;DHT22;1691;52.486;13.374;2023-06-19T03:41:37;19.20;87.90
3356;DHT22;1691;52.486;13.374;2023-06-19T03:44:04;19.30;87.70
3356;DHT22;1691;52.486;13.374;2023-06-19T03:46:31;19.40;87.30
3356;DHT22;1691;52.486;13.374;2023-06-19T03:48:59;19.50;86.90
3356;DHT22;1691;52.486;13.374;2023-06-19T03:51:27;19.70;86.70
3356;DHT22;1691;52.486;13.374;2023-06-19T03:53:56;19.80;86.40
3356;DHT22;1691;52.486;13.374;2023-06-19T03:56:23;20.00;85.40
3356;DHT22;1691;52.486;13.374;2023-06-19T03:58:50;20.00;84.90
3356;DHT22;1691;52.486;13.374;2023-06-19T04:01:17;20.00;84.30
3356;DHT22;1691;52.486;13.374;2023-06-19T04:03:45;20.00;84.10
3356;DHT22;1691;52.486;13.374;2023-06-19T04:06:12;20.00;83.90
3356;DHT22;1691;52.486;13.374;2023-06-19T04:08:39;19.90;83.80
3356;DHT22;1691;52.486;13.374;2023-06-19T04:11:09;19.90;83.80
3356;DHT22;1691;52.486;13.374;2023-06-19T04:13:37;19.90;83.80
3356;DHT22;1691;52.486;13.374;2023-06-19T04:16:04;19.80;83.80
3356;DHT22;1691;52.486;13.374;2023-06-19T04:18:31;19.80;83.80
3356;DHT22;1691;52.486;13.374;2023-06-19T04:21:00;19.80;83.80
3356;DHT22;1691;52.486;13.374;2023-06-19T04:23:27;19.80;83.80
3356;DHT22;1691;52.486;13.374;2023-06-19T04:25:55;19.90;83.80
3356;DHT22;1691;52.486;13.374;2023-06-19T04:28:22;19.90;83.40
3356;DHT22;1691;52.486;13.374;2023-06-19T04:30:49;20.00;83.20
3356;DHT22;1691;52.486;13.374;2023-06-19T04:33:16;20.00;83.60
3356;DHT22;1691;52.486;13.374;2023-06-19T04:35:48;19.90;83.90
3356;DHT22;1691;52.486;13.374;2023-06-19T04:38:15;19.80;84.90
3356;DHT22;1691;52.486;13.374;2023-06-19T04:40:42;19.80;85.20
3356;DHT22;1691;52.486;13.374;2023-06-19T04:43:10;19.70;85.60
3356;DHT22;1691;52.486;13.374;2023-06-19T04:45:37;19.70;85.80
3356;DHT22;1691;52.486;13.374;2023-06-19T04:48:04;19.80;85.80
3356;DHT22;1691;52.486;13.374;2023-06-19T04:50:32;19.80;85.60
3356;DHT22;1691;52.486;13.374;2023-06-19T04:52:59;19.80;85.60
3356;DHT22;1691;52.486;13.374;2023-06-19T04:55:26;19.80;85.60
3356;DHT22;1691;52.486;13.374;2023-06-19T04:57:54;19.80;85.40
3356;DHT22;1691;52.486;13.374;2023-06-19T05:00:22;19.80;85.10
3356;DHT22;1691;52.486;13.374;2023-06-19T05:02:50;19.90;84.90
3356;DHT22;1691;52.486;13.374;2023-06-19T05:05:18;19.90;84.70
3356;DHT22;1691;52.486;13.374;2023-06-19T05:07:47;19.90;84.50
3356;DHT22;1691;52.486;13.374;2023-06-19T05:10:14;20.00;84.10
3356;DHT22;1691;52.486;13.374;2023-06-19T05:12:42;20.00;83.90
3356;DHT22;1691;52.486;13.374;2023-06-19T05:15:09;20.00;83.80
3356;DHT22;1691;52.486;13.374;2023-06-19T05:17:37;20.10;83.60
3356;DHT22;1691;52.486;13.374;2023-06-19T05:20:06;20.10;83.60
3356;DHT22;1691;52.486;13.374;2023-06-19T05:22:34;20.20;83.40
3356;DHT22;1691;52.486;13.374;2023-06-19T05:25:02;20.30;83.20
3356;DHT22;1691;52.486;13.374;2023-06-19T05:27:29;20.30;83.00
3356;DHT22;1691;52.486;13.374;2023-06-19T05:29:56;20.30;82.80
3356;DHT22;1691;52.486;13.374;2023-06-19T05:32:24;20.30;82.80
3356;DHT22;1691;52.486;13.374;2023-06-19T05:34:51;20.30;82.80
3356;DHT22;1691;52.486;13.374;2023-06-19T05:37:18;20.40;83.00
3356;DHT22;1691;52.486;13.374;2023-06-19T05:39:45;20.40;82.60
3356;DHT22;1691;52.486;13.374;2023-06-19T05:42:13;20.40;82.60
3356;DHT22;1691;52.486;13.374;2023-06-19T05:44:40;20.50;82.60
3356;DHT22;1691;52.486;13.374;2023-06-19T05:47:07;20.50;82.60
3356;DHT22;1691;52.486;13.374;2023-06-19T05:49:34;20.50;82.60
3356;DHT22;1691;52.486;13.374;2023-06-19T05:52:02;20.60;82.60
3356;DHT22;1691;52.486;13.374;2023-06-19T05:54:29;20.60;82.60
3356;DHT22;1691;52.486;13.374;2023-06-19T05:56:56;20.60;82.60
3356;DHT22;1691;52.486;13.374;2023-06-19T05:59:23;20.70;82.40
3356;DHT22;1691;52.486;13.374;2023-06-19T06:01:50;20.80;82.30
3356;DHT22;1691;52.486;13.374;2023-06-19T06:04:20;20.80;81.90
3356;DHT22;1691;52.486;13.374;2023-06-19T06:06:48;20.90;81.70
3356;DHT22;1691;52.486;13.374;2023-06-19T06:09:16;20.90;81.50
3356;DHT22;1691;52.486;13.374;2023-06-19T06:11:43;21.00;81.30
3356;DHT22;1691;52.486;13.374;2023-06-19T06:14:10;21.00;81.10
3356;DHT22;1691;52.486;13.374;2023-06-19T06:16:39;21.10;80.80
3356;DHT22;1691;52.486;13.374;2023-06-19T06:19:06;21.20;80.40
3356;DHT22;1691;52.486;13.374;2023-06-19T06:21:33;21.20;80.20
3356;DHT22;1691;52.486;13.374;2023-06-19T06:24:02;21.30;80.00
3356;DHT22;1691;52.486;13.374;2023-06-19T06:26:29;21.30;79.80
3356;DHT22;1691;52.486;13.374;2023-06-19T06:28:56;21.40;79.70
3356;DHT22;1691;52.486;13.374;2023-06-19T06:31:24;21.50;79.50
3356;DHT22;1691;52.486;13.374;2023-06-19T06:33:51;21.50;79.10
3356;DHT22;1691;52.486;13.374;2023-06-19T06:36:18;21.50;79.10
3356;DHT22;1691;52.486;13.374;2023-06-19T06:39:00;21.50;79.10
3356;DHT22;1691;52.486;13.374;2023-06-19T06:41:28;21.60;78.90
3356;DHT22;1691;52.486;13.374;2023-06-19T06:43:55;21.60;78.70
3356;DHT22;1691;52.486;13.374;2023-06-19T06:46:22;21.70;78.70
3356;DHT22;1691;52.486;13.374;2023-06-19T06:48:50;21.70;78.50
3356;DHT22;1691;52.486;13.374;2023-06-19T06:51:17;21.80;78.50
3356;DHT22;1691;52.486;13.374;2023-06-19T06:53:44;21.80;78.50
3356;DHT22;1691;52.486;13.374;2023-06-19T06:56:11;21.80;78.30
3356;DHT22;1691;52.486;13.374;2023-06-19T06:58:39;21.80;78.30
3356;DHT22;1691;52.486;13.374;2023-06-19T07:01:06;21.90;78.30
3356;DHT22;1691;52.486;13.374;2023-06-19T07:03:33;21.90;78.00
3356;DHT22;1691;52.486;13.374;2023-06-19T07:06:02;22.00;77.80
3356;DHT22;1691;52.486;13.374;2023-06-19T07:08:29;22.00;77.60
3356;DHT22;1691;52.486;13.374;2023-06-19T07:10:56;22.00;77.20
3356;DHT22;1691;52.486;13.374;2023-06-19T07:13:25;22.10;77.00
3356;DHT22;1691;52.486;13.374;2023-06-19T07:15:52;22.20;76.90
3356;DHT22;1691;52.486;13.374;2023-06-19T07:18:19;22.20;76.70
3356;DHT22;1691;52.486;13.374;2023-06-19T07:20:46;22.30;76.30
3356;DHT22;1691;52.486;13.374;2023-06-19T07:23:14;22.50;75.90
3356;DHT22;1691;52.486;13.374;2023-06-19T07:25:41;22.70;75.60
3356;DHT22;1691;52.486;13.374;2023-06-19T07:28:08;22.90;75.00
3356;DHT22;1691;52.486;13.374;2023-06-19T07:30:35;23.00;74.20
3356;DHT22;1691;52.486;13.374;2023-06-19T07:33:02;23.20;73.70
3356;DHT22;1691;52.486;13.374;2023-06-19T07:35:29;23.40;73.10
3356;DHT22;1691;52.486;13.374;2023-06-19T07:37:57;23.50;72.40
3356;DHT22;1691;52.486;13.374;2023-06-19T07:40:24;23.50;72.00
3356;DHT22;1691;52.486;13.374;2023-06-19T07:42:51;23.60;71.80
3356;DHT22;1691;52.486;13.374;2023-06-19T07:45:18;23.60;71.60
3356;DHT22;1691;52.486;13.374;2023-06-19T07:47:56;23.70;71.50
3356;DHT22;1691;52.486;13.374;2023-06-19T07:50:24;23.90;70.70
3356;DHT22;1691;52.486;13.374;2023-06-19T07:52:53;24.10;70.50
3356;DHT22;1691;52.486;13.374;2023-06-19T07:55:20;24.30;69.60
3356;DHT22;1691;52.486;13.374;2023-06-19T07:57:47;24.50;69.00
3356;DHT22;1691;52.486;13.374;2023-06-19T08:00:15;24.70;68.30
3356;DHT22;1691;52.486;13.374;2023-06-19T08:02:42;24.80;67.70
3356;DHT22;1691;52.486;13.374;2023-06-19T08:05:10;24.90;67.40
3356;DHT22;1691;52.486;13.374;2023-06-19T08:07:40;25.00;67.00
3356;DHT22;1691;52.486;13.374;2023-06-19T08:10:08;25.00;66.80
3356;DHT22;1691;52.486;13.374;2023-06-19T08:12:53;25.00;66.40
3356;DHT22;1691;52.486;13.374;2023-06-19T08:15:20;25.10;66.40
3356;DHT22;1691;52.486;13.374;2023-06-19T08:17:48;25.10;66.20
3356;DHT22;1691;52.486;13.374;2023-06-19T08:20:15;25.20;65.90
3356;DHT22;1691;52.486;13.374;2023-06-19T08:22:43;25.20;65.50
3356;DHT22;1691;52.486;13.374;2023-06-19T08:25:10;25.30;65.30
3356;DHT22;1691;52.486;13.374;2023-06-19T08:27:37;25.30;64.70
3356;DHT22;1691;52.486;13.374;2023-06-19T08:30:05;25.20;64.70
3356;DHT22;1691;52.486;13.374;2023-06-19T08:32:33;25.20;64.60
3356;DHT22;1691;52.486;13.374;2023-06-19T08:35:01;25.20;64.40
3356;DHT22;1691;52.486;13.374;2023-06-19T08:37:30;25.20;64.60
3356;DHT22;1691;52.486;13.374;2023-06-19T08:39:57;25.00;64.60
3356;DHT22;1691;52.486;13.374;2023-06-19T08:42:24;25.00;64.70
3356;DHT22;1691;52.486;13.374;2023-06-19T08:44:51;24.90;65.10
3356;DHT22;1691;52.486;13.374;2023-06-19T08:47:18;24.90;65.10
3356;DHT22;1691;52.486;13.374;2023-06-19T08:49:46;24.90;65.10
3356;DHT22;1691;52.486;13.374;2023-06-19T08:52:13;24.90;65.10
3356;DHT22;1691;52.486;13.374;2023-06-19T08:54:42;24.90;65.30
3356;DHT22;1691;52.486;13.374;2023-06-19T08:57:13;24.90;65.10
3356;DHT22;1691;52.486;13.374;2023-06-19T08:59:47;25.00;65.10
3356;DHT22;1691;52.486;13.374;2023-06-19T09:02:18;25.10;64.70
3356;DHT22;1691;52.486;13.374;2023-06-19T09:04:45;25.20;64.40
3356;DHT22;1691;52.486;13.374;2023-06-19T09:07:13;25.30;64.20
3356;DHT22;1691;52.486;13.374;2023-06-19T09:09:45;25.50;63.60
3356;DHT22;1691;52.486;13.374;2023-06-19T09:12:15;25.70;63.10
3356;DHT22;1691;52.486;13.374;2023-06-19T09:14:45;25.80;62.70
3356;DHT22;1691;52.486;13.374;2023-06-19T09:17:17;25.90;62.50
3356;DHT22;1691;52.486;13.374;2023-06-19T09:19:53;26.00;62.10
3356;DHT22;1691;52.486;13.374;2023-06-19T09:22:24;26.00;61.80
3356;DHT22;1691;52.486;13.374;2023-06-19T09:24:52;26.00;62.00
3356;DHT22;1691;52.486;13.374;2023-06-19T09:27:19;26.00;62.00
3356;DHT22;1691;52.486;13.374;2023-06-19T09:29:49;26.00;62.00
3356;DHT22;1691;52.486;13.374;2023-06-19T09:32:26;26.10;61.60
3356;DHT22;1691;52.486;13.374;2023-06-19T09:34:56;26.10;61.60
3356;DHT22;1691;52.486;13.374;2023-06-19T09:37:26;26.20;61.40
3356;DHT22;1691;52.486;13.374;2023-06-19T09:39:56;26.20;61.20
3356;DHT22;1691;52.486;13.374;2023-06-19T09:42:32;26.20;61.20
3356;DHT22;1691;52.486;13.374;2023-06-19T09:45:05;26.10;61.20
3356;DHT22;1691;52.486;13.374;2023-06-19T09:47:44;26.10;61.20
3356;DHT22;1691;52.486;13.374;2023-06-19T09:50:16;26.20;61.20
3356;DHT22;1691;52.486;13.374;2023-06-19T09:52:44;26.20;61.20
3356;DHT22;1691;52.486;13.374;2023-06-19T09:55:12;26.30;60.80
3356;DHT22;1691;52.486;13.374;2023-06-19T09:57:41;26.40;60.60
3356;DHT22;1691;52.486;13.374;2023-06-19T10:00:09;26.40;60.50
3356;DHT22;1691;52.486;13.374;2023-06-19T10:02:40;26.30;60.50
3356;DHT22;1691;52.486;13.374;2023-06-19T10:05:09;26.20;60.80
3356;DHT22;1691;52.486;13.374;2023-06-19T10:07:45;26.20;61.20
3356;DHT22;1691;52.486;13.374;2023-06-19T10:10:26;26.20;61.20
3356;DHT22;1691;52.486;13.374;2023-06-19T10:12:59;26.10;61.40
3356;DHT22;1691;52.486;13.374;2023-06-19T10:15:41;26.00;62.00
3356;DHT22;1691;52.486;13.374;2023-06-19T10:18:15;26.00;62.00
3356;DHT22;1691;52.486;13.374;2023-06-19T10:20:45;25.90;62.00
3356;DHT22;1691;52.486;13.374;2023-06-19T10:23:22;25.90;62.10
3356;DHT22;1691;52.486;13.374;2023-06-19T10:28:27;26.10;61.80
3356;DHT22;1691;52.486;13.374;2023-06-19T10:30:59;26.20;62.00
3356;DHT22;1691;52.486;13.374;2023-06-19T10:33:32;26.30;62.90
3356;DHT22;1691;52.486;13.374;2023-06-19T10:36:01;26.30;64.60
3356;DHT22;1691;52.486;13.374;2023-06-19T10:38:41;26.30;65.30
3356;DHT22;1691;52.486;13.374;2023-06-19T10:41:34;26.20;64.00
3356;DHT22;1691;52.486;13.374;2023-06-19T10:44:06;26.20;63.30
3356;DHT22;1691;52.486;13.374;2023-06-19T10:46:39;26.10;63.40
3356;DHT22;1691;52.486;13.374;2023-06-19T10:49:10;26.00;64.70
3356;DHT22;1691;52.486;13.374;2023-06-19T10:51:41;25.90;64.70
3356;DHT22;1691;52.486;13.374;2023-06-19T10:54:10;26.00;64.00
3356;DHT22;1691;52.486;13.374;2023-06-19T10:56:38;26.10;63.30
3356;DHT22;1691;52.486;13.374;2023-06-19T10:59:07;26.40;62.70
3356;DHT22;1691;52.486;13.374;2023-06-19T11:01:46;26.60;61.20
3356;DHT22;1691;52.486;13.374;2023-06-19T11:04:15;26.90;60.50
3356;DHT22;1691;52.486;13.374;2023-06-19T11:06:44;27.10;59.80
3356;DHT22;1691;52.486;13.374;2023-06-19T11:09:13;27.30;59.30
3356;DHT22;1691;52.486;13.374;2023-06-19T11:11:47;27.40;58.90
3356;DHT22;1691;52.486;13.374;2023-06-19T11:14:16;27.50;58.20
3356;DHT22;1691;52.486;13.374;2023-06-19T11:16:46;27.40;57.90
3356;DHT22;1691;52.486;13.374;2023-06-19T11:19:20;27.20;58.20
3356;DHT22;1691;52.486;13.374;2023-06-19T11:21:50;27.20;58.20
3356;DHT22;1691;52.486;13.374;2023-06-19T11:24:19;27.20;58.40
3356;DHT22;1691;52.486;13.374;2023-06-19T11:26:49;27.10;58.40
3356;DHT22;1691;52.486;13.374;2023-06-19T11:29:22;27.00;58.50
3356;DHT22;1691;52.486;13.374;2023-06-19T11:31:54;27.10;58.50
3356;DHT22;1691;52.486;13.374;2023-06-19T11:34:35;27.30;58.20
3356;DHT22;1691;52.486;13.374;2023-06-19T11:37:24;27.40;58.20
3356;DHT22;1691;52.486;13.374;2023-06-19T11:39:51;27.40;57.80
3356;DHT22;1691;52.486;13.374;2023-06-19T11:42:19;27.50;57.90
3356;DHT22;1691;52.486;13.374;2023-06-19T11:44:57;27.60;57.50
3356;DHT22;1691;52.486;13.374;2023-06-19T11:47:32;27.60;56.90
3356;DHT22;1691;52.486;13.374;2023-06-19T11:50:00;27.50;56.10
3356;DHT22;1691;52.486;13.374;2023-06-19T11:52:31;27.50;55.80
3356;DHT22;1691;52.486;13.374;2023-06-19T11:54:58;27.70;55.00
3356;DHT22;1691;52.486;13.374;2023-06-19T11:57:27;27.90;53.80
3356;DHT22;1691;52.486;13.374;2023-06-19T11:59:54;28.10;53.20
3356;DHT22;1691;52.486;13.374;2023-06-19T12:02:22;28.20;52.90
3356;DHT22;1691;52.486;13.374;2023-06-19T12:04:49;28.40;52.10
3356;DHT22;1691;52.486;13.374;2023-06-19T12:07:17;28.60;51.80
3356;DHT22;1691;52.486;13.374;2023-06-19T12:09:44;28.70;51.20
3356;DHT22;1691;52.486;13.374;2023-06-19T12:12:11;28.70;50.70
3356;DHT22;1691;52.486;13.374;2023-06-19T12:14:38;28.60;50.40
3356;DHT22;1691;52.486;13.374;2023-06-19T12:17:06;28.60;50.20
3356;DHT22;1691;52.486;13.374;2023-06-19T12:19:33;28.60;50.10
3356;DHT22;1691;52.486;13.374;2023-06-19T12:22:01;28.80;49.80
3356;DHT22;1691;52.486;13.374;2023-06-19T12:24:28;29.00;49.30
3356;DHT22;1691;52.486;13.374;2023-06-19T12:26:55;29.10;49.00
3356;DHT22;1691;52.486;13.374;2023-06-19T12:29:22;29.20;49.20
3356;DHT22;1691;52.486;13.374;2023-06-19T12:31:50;29.20;48.90
3356;DHT22;1691;52.486;13.374;2023-06-19T12:34:18;29.20;48.90
3356;DHT22;1691;52.486;13.374;2023-06-19T12:36:56;29.10;48.70
3356;DHT22;1691;52.486;13.374;2023-06-19T12:39:24;28.90;49.00
3356;DHT22;1691;52.486;13.374;2023-06-19T12:41:52;28.70;49.30
3356;DHT22;1691;52.486;13.374;2023-06-19T12:44:21;28.60;49.50
3356;DHT22;1691;52.486;13.374;2023-06-19T12:46:51;28.50;49.50
3356;DHT22;1691;52.486;13.374;2023-06-19T12:49:19;28.50;49.80
3356;DHT22;1691;52.486;13.374;2023-06-19T12:51:46;28.40;50.10
3356;DHT22;1691;52.486;13.374;2023-06-19T12:54:18;28.20;50.10
3356;DHT22;1691;52.486;13.374;2023-06-19T12:56:45;28.20;50.20
3356;DHT22;1691;52.486;13.374;2023-06-19T12:59:13;28.20;50.10
3356;DHT22;1691;52.486;13.374;2023-06-19T13:01:41;28.20;49.90
3356;DHT22;1691;52.486;13.374;2023-06-19T13:04:09;28.30;49.90
3356;DHT22;1691;52.486;13.374;2023-06-19T13:06:37;28.30;49.60
3356;DHT22;1691;52.486;13.374;2023-06-19T13:09:06;28.40;49.30
3356;DHT22;1691;52.486;13.374;2023-06-19T13:11:34;28.40;49.30
3356;DHT22;1691;52.486;13.374;2023-06-19T13:14:01;28.50;49.20
3356;DHT22;1691;52.486;13.374;2023-06-19T13:16:30;28.60;48.90
3356;DHT22;1691;52.486;13.374;2023-06-19T13:19:11;28.80;48.90
3356;DHT22;1691;52.486;13.374;2023-06-19T13:21:38;29.10;48.50
3356;DHT22;1691;52.486;13.374;2023-06-19T13:24:06;29.20;48.70
3356;DHT22;1691;52.486;13.374;2023-06-19T13:26:33;29.20;48.50
3356;DHT22;1691;52.486;13.374;2023-06-19T13:29:00;29.10;48.70
3356;DHT22;1691;52.486;13.374;2023-06-19T13:31:27;29.10;48.70
3356;DHT22;1691;52.486;13.374;2023-06-19T13:33:54;29.10;48.90
3356;DHT22;1691;52.486;13.374;2023-06-19T13:36:22;29.00;48.90
3356;DHT22;1691;52.486;13.374;2023-06-19T13:38:50;29.00;49.00
3356;DHT22;1691;52.486;13.374;2023-06-19T13:41:18;29.00;49.00
3356;DHT22;1691;52.486;13.374;2023-06-19T13:43:46;29.00;49.00
3356;DHT22;1691;52.486;13.374;2023-06-19T13:46:14;28.90;49.20
3356;DHT22;1691;52.486;13.374;2023-06-19T13:48:41;28.90;49.30
3356;DHT22;1691;52.486;13.374;2023-06-19T13:51:09;28.90;49.50
3356;DHT22;1691;52.486;13.374;2023-06-19T13:53:36;28.90;49.50
3356;DHT22;1691;52.486;13.374;2023-06-19T13:56:03;28.90;49.80
3356;DHT22;1691;52.486;13.374;2023-06-19T13:58:31;29.00;49.80
3356;DHT22;1691;52.486;13.374;2023-06-19T14:01:00;28.90;49.80
3356;DHT22;1691;52.486;13.374;2023-06-19T14:03:27;29.00;49.80
3356;DHT22;1691;52.486;13.374;2023-06-19T14:05:55;29.00;49.30
3356;DHT22;1691;52.486;13.374;2023-06-19T14:08:22;29.00;49.50
3356;DHT22;1691;52.486;13.374;2023-06-19T14:10:51;29.20;49.50
3356;DHT22;1691;52.486;13.374;2023-06-19T14:13:18;29.30;49.20
3356;DHT22;1691;52.486;13.374;2023-06-19T14:15:45;29.40;48.40
3356;DHT22;1691;52.486;13.374;2023-06-19T14:18:13;29.50;48.40
3356;DHT22;1691;52.486;13.374;2023-06-19T14:20:40;29.60;48.10
3356;DHT22;1691;52.486;13.374;2023-06-19T14:23:08;29.60;47.90
3356;DHT22;1691;52.486;13.374;2023-06-19T14:25:36;29.70;47.80
3356;DHT22;1691;52.486;13.374;2023-06-19T14:28:05;29.70;47.60
3356;DHT22;1691;52.486;13.374;2023-06-19T14:30:32;29.70;47.50
3356;DHT22;1691;52.486;13.374;2023-06-19T14:33:00;29.70;46.90
3356;DHT22;1691;52.486;13.374;2023-06-19T14:35:28;29.70;46.70
3356;DHT22;1691;52.486;13.374;2023-06-19T14:37:55;29.70;46.90
3356;DHT22;1691;52.486;13.374;2023-06-19T14:40:22;29.60;47.00
3356;DHT22;1691;52.486;13.374;2023-06-19T14:42:50;29.70;47.00
3356;DHT22;1691;52.486;13.374;2023-06-19T14:45:17;29.70;46.70
3356;DHT22;1691;52.486;13.374;2023-06-19T14:47:45;29.80;46.70
3356;DHT22;1691;52.486;13.374;2023-06-19T14:50:13;29.90;46.70
3356;DHT22;1691;52.486;13.374;2023-06-19T14:52:40;30.00;46.20
3356;DHT22;1691;52.486;13.374;2023-06-19T14:55:07;30.10;45.90
3356;DHT22;1691;52.486;13.374;2023-06-19T14:57:36;30.00;45.80
3356;DHT22;1691;52.486;13.374;2023-06-19T15:00:03;30.10;45.80
3356;DHT22;1691;52.486;13.374;2023-06-19T15:02:32;30.10;45.60
3356;DHT22;1691;52.486;13.374;2023-06-19T15:05:02;30.20;45.50
3356;DHT22;1691;52.486;13.374;2023-06-19T15:07:33;30.10;45.50
3356;DHT22;1691;52.486;13.374;2023-06-19T15:10:00;30.00;45.50
3356;DHT22;1691;52.486;13.374;2023-06-19T15:12:30;29.90;45.60
3356;DHT22;1691;52.486;13.374;2023-06-19T15:14:59;29.90;45.60
3356;DHT22;1691;52.486;13.374;2023-06-19T15:17:26;29.80;45.60
3356;DHT22;1691;52.486;13.374;2023-06-19T15:19:53;29.80;45.60
3356;DHT22;1691;52.486;13.374;2023-06-19T15:22:20;29.70;45.50
3356;DHT22;1691;52.486;13.374;2023-06-19T15:24:47;29.70;45.60
3356;DHT22;1691;52.486;13.374;2023-06-19T15:27:15;29.60;45.60
3356;DHT22;1691;52.486;13.374;2023-06-19T15:29:42;29.50;45.80
3356;DHT22;1691;52.486;13.374;2023-06-19T15:32:09;29.50;45.80
3356;DHT22;1691;52.486;13.374;2023-06-19T15:34:36;29.50;45.90
3356;DHT22;1691;52.486;13.374;2023-06-19T15:37:04;29.40;45.90
3356;DHT22;1691;52.486;13.374;2023-06-19T15:39:31;29.40;45.90
3356;DHT22;1691;52.486;13.374;2023-06-19T15:41:58;29.40;45.80
3356;DHT22;1691;52.486;13.374;2023-06-19T15:44:26;29.40;45.60
3356;DHT22;1691;52.486;13.374;2023-06-19T15:46:53;29.40;45.60
3356;DHT22;1691;52.486;13.374;2023-06-19T15:49:20;29.40;45.50
3356;DHT22;1691;52.486;13.374;2023-06-19T15:51:47;29.40;45.50
3356;DHT22;1691;52.486;13.374;2023-06-19T15:54:14;29.40;45.20
3356;DHT22;1691;52.486;13.374;2023-06-19T15:56:42;29.50;45.00